createdAt,value
2018-11-23T00:02:50.420Z,-0.99
2018-11-23T00:12:51.069Z,-1.09
2018-11-23T00:22:50.509Z,-1.28
2018-11-23T00:32:50.415Z,-1.44
2018-11-23T00:42:50.483Z,-1.49
2018-11-23T00:52:50.421Z,-1.45
2018-11-23T01:02:50.334Z,-1.58
2018-11-23T01:12:50.492Z,-1.55
2018-11-23T01:22:50.492Z,-1.44
2018-11-23T01:32:50.423Z,-1.46
2018-11-23T01:42:50.391Z,-1.59
2018-11-23T01:52:50.569Z,-1.43
2018-11-23T02:02:50.453Z,-1.41
2018-11-23T02:12:50.488Z,-1.35
2018-11-23T02:22:50.477Z,-1.06
2018-11-23T02:32:50.443Z,-0.59
2018-11-23T02:42:50.415Z,-0.44
2018-11-23T02:52:50.361Z,-0.50
2018-11-23T03:02:50.430Z,-0.54
2018-11-23T03:12:50.430Z,-0.59
2018-11-23T03:22:50.374Z,-0.67
2018-11-23T03:32:50.447Z,-0.74
2018-11-23T03:42:50.433Z,-0.82
2018-11-23T03:52:50.414Z,-0.59
2018-11-23T04:02:50.419Z,-0.12
2018-11-23T04:12:50.458Z,0.17
2018-11-23T04:22:50.434Z,0.24
2018-11-23T04:32:50.368Z,0.33
2018-11-23T04:42:50.410Z,0.28
2018-11-23T04:52:57.642Z,0.17
2018-11-23T05:02:50.423Z,0.10
2018-11-23T05:12:50.474Z,0.14
2018-11-23T05:22:50.395Z,0.16
2018-11-23T05:32:50.380Z,0.48
2018-11-23T05:42:50.407Z,0.35
2018-11-23T05:52:50.325Z,-0.08
2018-11-23T06:02:50.389Z,-0.40
2018-11-23T06:12:50.287Z,-0.33
2018-11-23T06:22:50.351Z,-0.50
2018-11-23T06:32:50.424Z,-0.49
2018-11-23T06:42:50.384Z,-0.35
2018-11-23T06:52:50.430Z,-0.17
2018-11-23T07:02:50.331Z,-0.19
2018-11-23T07:12:50.343Z,-0.10
2018-11-23T07:22:50.352Z,0.23
2018-11-23T07:32:50.368Z,0.53
2018-11-23T07:42:50.419Z,0.71
2018-11-23T07:52:50.399Z,1.39
2018-11-23T08:02:50.458Z,3.49
2018-11-23T08:12:51.028Z,4.75
2018-11-23T08:22:50.337Z,5.33
2018-11-23T08:32:50.964Z,5.55
2018-11-23T08:42:50.337Z,6.31
2018-11-23T08:52:50.339Z,7.84
2018-11-23T09:02:50.384Z,6.17
2018-11-23T09:12:50.379Z,6.28
2018-11-23T09:22:50.365Z,8.45
2018-11-23T09:32:50.429Z,8.85
2018-11-23T09:42:50.396Z,9.17
2018-11-23T09:52:50.325Z,12.44
2018-11-23T10:02:50.420Z,11.85
2018-11-23T10:12:50.533Z,12.48
2018-11-23T10:22:51.251Z,14.40
2018-11-23T10:32:50.364Z,15.99
2018-11-23T10:42:50.362Z,16.16
2018-11-23T10:52:50.520Z,16.08
2018-11-23T11:02:51.233Z,15.62
2018-11-23T11:12:51.204Z,14.56
2018-11-23T11:22:50.377Z,14.72
2018-11-23T11:32:50.418Z,14.97
2018-11-23T11:42:51.165Z,14.62
2018-11-23T11:52:50.468Z,14.60
2018-11-23T12:02:50.380Z,14.89
2018-11-23T12:12:50.580Z,15.13
2018-11-23T12:22:50.375Z,14.68
2018-11-23T12:32:51.437Z,15.25
2018-11-23T12:42:50.644Z,15.04
2018-11-23T12:52:50.430Z,13.99
2018-11-23T13:02:50.448Z,13.88
2018-11-23T13:12:50.902Z,14.38
2018-11-23T13:22:50.461Z,15.09
2018-11-23T13:32:50.388Z,15.39
2018-11-23T13:42:51.449Z,14.01
2018-11-23T13:52:50.443Z,13.17
2018-11-23T14:02:50.499Z,13.58
2018-11-23T14:12:51.095Z,13.69
2018-11-23T14:22:51.095Z,13.40
2018-11-23T14:32:50.430Z,13.02
2018-11-23T14:42:50.539Z,12.49
2018-11-23T14:52:50.485Z,12.39
2018-11-23T15:02:50.456Z,10.76
2018-11-23T15:12:50.441Z,9.10
2018-11-23T15:22:50.392Z,8.30
2018-11-23T15:32:51.116Z,7.88
2018-11-23T15:42:57.699Z,7.33
2018-11-23T15:52:50.500Z,6.88
2018-11-23T16:02:50.437Z,6.36
2018-11-23T16:12:50.499Z,6.20
2018-11-23T16:22:50.484Z,6.04
2018-11-23T16:32:50.424Z,5.86
2018-11-23T16:42:50.491Z,5.52
2018-11-23T16:52:50.457Z,5.64
2018-11-23T17:02:50.375Z,5.80
2018-11-23T17:12:50.470Z,5.76
2018-11-23T17:22:50.458Z,5.51
2018-11-23T17:32:50.443Z,5.40
2018-11-23T17:42:50.352Z,4.98
2018-11-23T17:52:50.413Z,4.52
2018-11-23T18:02:50.435Z,4.43
2018-11-23T18:12:50.439Z,4.19
2018-11-23T18:22:50.420Z,3.88
2018-11-23T18:32:50.392Z,3.68
2018-11-23T18:42:50.674Z,3.70
2018-11-23T18:52:50.438Z,3.71
2018-11-23T19:02:51.168Z,3.70
2018-11-23T19:12:50.336Z,3.34
2018-11-23T19:22:50.943Z,3.05
2018-11-23T19:32:51.097Z,2.83
2018-11-23T19:42:50.381Z,2.74
2018-11-23T19:52:50.430Z,2.53
2018-11-23T20:02:50.516Z,2.50
2018-11-23T20:12:50.431Z,2.44
2018-11-23T20:22:50.457Z,2.42
2018-11-23T20:32:50.555Z,2.42
2018-11-23T20:42:50.461Z,2.84
2018-11-23T20:52:50.471Z,2.87
2018-11-23T21:02:50.452Z,2.77
2018-11-23T21:12:50.299Z,2.99
2018-11-23T21:22:50.414Z,2.87
2018-11-23T21:32:50.418Z,2.70
2018-11-23T21:42:50.475Z,2.73
2018-11-23T21:52:50.539Z,2.75
2018-11-23T22:02:50.369Z,2.76
2018-11-23T22:12:51.321Z,2.77
2018-11-23T22:22:50.432Z,2.67
2018-11-23T22:32:50.348Z,2.62
2018-11-23T22:42:50.404Z,2.63
2018-11-23T22:52:50.284Z,2.54
2018-11-23T23:02:50.694Z,2.47
2018-11-23T23:12:50.355Z,2.39
2018-11-23T23:22:50.371Z,2.31
2018-11-23T23:32:50.418Z,2.13
2018-11-23T23:42:50.370Z,2.15
2018-11-23T23:52:50.303Z,2.35
